sensor_id;sensor_type;location;lat;lon;timestamp;temperature;humidity
44559;DHT22;30270;40.238;18.256;2022-12-18T00:01:40;15.10;99.90
44559;DHT22;30270;40.238;18.256;2022-12-18T00:04:21;15.10;99.90
44559;DHT22;30270;40.238;18.256;2022-12-18T00:06:50;15.00;99.90
44559;DHT22;30270;40.238;18.256;2022-12-18T00:09:20;15.00;99.90
44559;DHT22;30270;40.238;18.256;2022-12-18T00:11:49;15.00;99.90
44559;DHT22;30270;40.238;18.256;2022-12-18T00:14:18;14.90;99.90
44559;DHT22;30270;40.238;18.256;2022-12-18T00:16:46;14.90;99.90
44559;DHT22;30270;40.238;18.256;2022-12-18T00:19:14;15.00;99.90
44559;DHT22;30270;40.238;18.256;2022-12-18T00:21:43;15.00;99.90
44559;DHT22;30270;40.238;18.256;2022-12-18T00:24:11;14.90;99.90
44559;DHT22;30270;40.238;18.256;2022-12-18T00:26:40;14.90;99.90
44559;DHT22;30270;40.238;18.256;2022-12-18T00:29:11;14.90;99.90
44559;DHT22;30270;40.238;18.256;2022-12-18T00:31:39;14.90;99.90
44559;DHT22;30270;40.238;18.256;2022-12-18T00:34:11;15.00;99.90
44559;DHT22;30270;40.238;18.256;2022-12-18T00:36:42;15.00;99.90
44559;DHT22;30270;40.238;18.256;2022-12-18T00:39:11;15.00;99.90
44559;DHT22;30270;40.238;18.256;2022-12-18T00:41:39;15.00;99.90
44559;DHT22;30270;40.238;18.256;2022-12-18T00:44:25;15.00;99.90
44559;DHT22;30270;40.238;18.256;2022-12-18T00:46:52;14.90;99.90
44559;DHT22;30270;40.238;18.256;2022-12-18T00:49:20;14.90;99.90
44559;DHT22;30270;40.238;18.256;2022-12-18T00:51:48;14.90;99.90
44559;DHT22;30270;40.238;18.256;2022-12-18T00:54:17;14.90;99.90
44559;DHT22;30270;40.238;18.256;2022-12-18T00:56:44;14.90;99.90
44559;DHT22;30270;40.238;18.256;2022-12-18T00:59:15;14.80;99.90
44559;DHT22;30270;40.238;18.256;2022-12-18T01:01:43;14.90;99.90
44559;DHT22;30270;40.238;18.256;2022-12-18T01:04:12;14.90;99.90
44559;DHT22;30270;40.238;18.256;2022-12-18T01:06:40;14.90;99.90
44559;DHT22;30270;40.238;18.256;2022-12-18T01:09:07;14.80;99.90
44559;DHT22;30270;40.238;18.256;2022-12-18T01:11:36;14.80;99.90
44559;DHT22;30270;40.238;18.256;2022-12-18T01:14:04;14.80;99.90
44559;DHT22;30270;40.238;18.256;2022-12-18T01:16:32;14.80;99.90
44559;DHT22;30270;40.238;18.256;2022-12-18T01:18:59;14.80;99.90
44559;DHT22;30270;40.238;18.256;2022-12-18T01:21:27;14.80;99.90
44559;DHT22;30270;40.238;18.256;2022-12-18T01:23:55;14.80;99.90
44559;DHT22;30270;40.238;18.256;2022-12-18T01:26:25;14.80;99.90
44559;DHT22;30270;40.238;18.256;2022-12-18T01:28:55;14.80;99.90
44559;DHT22;30270;40.238;18.256;2022-12-18T01:31:26;14.80;99.90
44559;DHT22;30270;40.238;18.256;2022-12-18T01:33:54;14.80;99.90
44559;DHT22;30270;40.238;18.256;2022-12-18T01:36:34;14.80;99.90
44559;DHT22;30270;40.238;18.256;2022-12-18T01:39:04;14.80;99.90
44559;DHT22;30270;40.238;18.256;2022-12-18T01:41:33;14.70;99.90
44559;DHT22;30270;40.238;18.256;2022-12-18T01:50:11;14.60;99.90
44559;DHT22;30270;40.238;18.256;2022-12-18T01:52:42;14.70;99.90
44559;DHT22;30270;40.238;18.256;2022-12-18T01:55:11;14.60;99.90
44559;DHT22;30270;40.238;18.256;2022-12-18T01:57:40;14.60;99.90
44559;DHT22;30270;40.238;18.256;2022-12-18T02:00:12;14.60;99.90
44559;DHT22;30270;40.238;18.256;2022-12-18T02:02:43;14.50;99.90
44559;DHT22;30270;40.238;18.256;2022-12-18T02:05:18;14.50;99.90
44559;DHT22;30270;40.238;18.256;2022-12-18T02:08:09;14.50;99.90
44559;DHT22;30270;40.238;18.256;2022-12-18T02:19:09;14.50;99.90
44559;DHT22;30270;40.238;18.256;2022-12-18T02:22:03;14.50;99.90
44559;DHT22;30270;40.238;18.256;2022-12-18T02:27:11;14.40;99.90
44559;DHT22;30270;40.238;18.256;2022-12-18T02:29:52;14.40;99.90
44559;DHT22;30270;40.238;18.256;2022-12-18T02:32:31;14.30;99.90
44559;DHT22;30270;40.238;18.256;2022-12-18T02:35:01;14.20;99.90
44559;DHT22;30270;40.238;18.256;2022-12-18T02:37:32;14.10;99.90
44559;DHT22;30270;40.238;18.256;2022-12-18T02:40:04;14.00;99.90
44559;DHT22;30270;40.238;18.256;2022-12-18T02:42:34;13.90;99.90
44559;DHT22;30270;40.238;18.256;2022-12-18T02:45:05;13.90;99.90
44559;DHT22;30270;40.238;18.256;2022-12-18T02:47:38;13.90;99.90
44559;DHT22;30270;40.238;18.256;2022-12-18T02:50:26;13.80;99.90
44559;DHT22;30270;40.238;18.256;2022-12-18T03:01:34;14.00;99.90
44559;DHT22;30270;40.238;18.256;2022-12-18T03:04:26;14.00;99.90
44559;DHT22;30270;40.238;18.256;2022-12-18T03:06:59;14.10;99.90
44559;DHT22;30270;40.238;18.256;2022-12-18T03:09:36;14.10;99.90
44559;DHT22;30270;40.238;18.256;2022-12-18T03:12:34;14.20;99.90
44559;DHT22;30270;40.238;18.256;2022-12-18T03:17:46;14.20;99.90
44559;DHT22;30270;40.238;18.256;2022-12-18T03:20:17;14.20;99.90
44559;DHT22;30270;40.238;18.256;2022-12-18T03:22:53;14.20;99.90
44559;DHT22;30270;40.238;18.256;2022-12-18T03:25:25;14.20;99.90
44559;DHT22;30270;40.238;18.256;2022-12-18T03:27:56;14.20;99.90
44559;DHT22;30270;40.238;18.256;2022-12-18T03:30:29;14.30;99.90
44559;DHT22;30270;40.238;18.256;2022-12-18T03:35:47;14.40;99.90
44559;DHT22;30270;40.238;18.256;2022-12-18T03:38:17;14.40;99.90
44559;DHT22;30270;40.238;18.256;2022-12-18T03:46:15;14.40;99.90
44559;DHT22;30270;40.238;18.256;2022-12-18T03:48:48;14.50;99.90
44559;DHT22;30270;40.238;18.256;2022-12-18T03:51:26;14.40;99.90
44559;DHT22;30270;40.238;18.256;2022-12-18T03:53:57;14.40;99.90
44559;DHT22;30270;40.238;18.256;2022-12-18T03:56:33;14.40;99.90
44559;DHT22;30270;40.238;18.256;2022-12-18T03:59:04;14.40;99.90
44559;DHT22;30270;40.238;18.256;2022-12-18T04:01:35;14.30;99.90
44559;DHT22;30270;40.238;18.256;2022-12-18T04:04:06;14.30;99.90
44559;DHT22;30270;40.238;18.256;2022-12-18T04:06:38;14.30;99.90
44559;DHT22;30270;40.238;18.256;2022-12-18T04:09:09;14.30;99.90
44559;DHT22;30270;40.238;18.256;2022-12-18T04:11:42;14.20;99.90
44559;DHT22;30270;40.238;18.256;2022-12-18T04:14:14;14.20;99.90
44559;DHT22;30270;40.238;18.256;2022-12-18T04:16:44;14.20;99.90
44559;DHT22;30270;40.238;18.256;2022-12-18T04:19:14;14.10;99.90
44559;DHT22;30270;40.238;18.256;2022-12-18T04:21:44;14.10;99.90
44559;DHT22;30270;40.238;18.256;2022-12-18T04:24:13;14.00;99.90
44559;DHT22;30270;40.238;18.256;2022-12-18T04:26:49;14.00;99.90
44559;DHT22;30270;40.238;18.256;2022-12-18T04:29:22;14.00;99.90
44559;DHT22;30270;40.238;18.256;2022-12-18T04:31:50;14.00;99.90
44559;DHT22;30270;40.238;18.256;2022-12-18T04:34:18;14.00;99.90
44559;DHT22;30270;40.238;18.256;2022-12-18T04:36:49;14.00;99.90
44559;DHT22;30270;40.238;18.256;2022-12-18T04:39:17;14.10;99.90
44559;DHT22;30270;40.238;18.256;2022-12-18T04:41:47;14.00;99.90
44559;DHT22;30270;40.238;18.256;2022-12-18T04:44:15;14.00;99.90
44559;DHT22;30270;40.238;18.256;2022-12-18T04:46:43;14.00;99.90
44559;DHT22;30270;40.238;18.256;2022-12-18T04:49:10;14.00;99.90
44559;DHT22;30270;40.238;18.256;2022-12-18T04:51:38;14.00;99.90
44559;DHT22;30270;40.238;18.256;2022-12-18T04:54:05;14.00;99.90
44559;DHT22;30270;40.238;18.256;2022-12-18T04:56:33;14.00;99.90
44559;DHT22;30270;40.238;18.256;2022-12-18T04:59:00;14.00;99.90
44559;DHT22;30270;40.238;18.256;2022-12-18T05:01:28;14.00;99.90
44559;DHT22;30270;40.238;18.256;2022-12-18T05:03:58;14.00;99.90
44559;DHT22;30270;40.238;18.256;2022-12-18T05:06:26;14.00;99.90
44559;DHT22;30270;40.238;18.256;2022-12-18T05:08:53;14.00;99.90
44559;DHT22;30270;40.238;18.256;2022-12-18T05:11:20;14.00;99.90
44559;DHT22;30270;40.238;18.256;2022-12-18T05:13:48;13.90;99.90
44559;DHT22;30270;40.238;18.256;2022-12-18T05:16:15;13.90;99.90
44559;DHT22;30270;40.238;18.256;2022-12-18T05:18:43;14.00;99.90
44559;DHT22;30270;40.238;18.256;2022-12-18T05:21:10;13.90;99.90
44559;DHT22;30270;40.238;18.256;2022-12-18T05:23:38;13.90;99.90
44559;DHT22;30270;40.238;18.256;2022-12-18T05:26:06;13.80;99.90
44559;DHT22;30270;40.238;18.256;2022-12-18T05:28:35;13.80;99.90
44559;DHT22;30270;40.238;18.256;2022-12-18T05:31:04;13.80;99.90
44559;DHT22;30270;40.238;18.256;2022-12-18T05:33:33;13.80;99.90
44559;DHT22;30270;40.238;18.256;2022-12-18T05:36:02;13.70;99.90
44559;DHT22;30270;40.238;18.256;2022-12-18T05:38:32;13.80;99.90
44559;DHT22;30270;40.238;18.256;2022-12-18T05:40:59;13.80;99.90
44559;DHT22;30270;40.238;18.256;2022-12-18T05:43:27;13.80;99.90
44559;DHT22;30270;40.238;18.256;2022-12-18T05:45:55;13.80;99.90
44559;DHT22;30270;40.238;18.256;2022-12-18T05:48:23;13.80;99.90
44559;DHT22;30270;40.238;18.256;2022-12-18T05:50:51;13.80;99.90
44559;DHT22;30270;40.238;18.256;2022-12-18T05:53:20;13.90;99.90
44559;DHT22;30270;40.238;18.256;2022-12-18T05:55:47;13.80;99.90
44559;DHT22;30270;40.238;18.256;2022-12-18T05:58:15;13.80;99.90
44559;DHT22;30270;40.238;18.256;2022-12-18T06:00:45;13.80;99.90
44559;DHT22;30270;40.238;18.256;2022-12-18T06:03:13;13.80;99.90
44559;DHT22;30270;40.238;18.256;2022-12-18T06:05:42;13.80;99.90
44559;DHT22;30270;40.238;18.256;2022-12-18T06:08:12;13.80;99.90
44559;DHT22;30270;40.238;18.256;2022-12-18T06:10:40;13.80;99.90
44559;DHT22;30270;40.238;18.256;2022-12-18T06:13:08;13.80;99.90
44559;DHT22;30270;40.238;18.256;2022-12-18T06:15:38;13.80;99.90
44559;DHT22;30270;40.238;18.256;2022-12-18T06:18:06;13.80;99.90
44559;DHT22;30270;40.238;18.256;2022-12-18T06:20:34;13.70;99.90
44559;DHT22;30270;40.238;18.256;2022-12-18T06:23:03;13.80;99.90
44559;DHT22;30270;40.238;18.256;2022-12-18T06:25:31;13.80;99.90
44559;DHT22;30270;40.238;18.256;2022-12-18T06:27:59;13.80;99.90
44559;DHT22;30270;40.238;18.256;2022-12-18T06:30:27;13.80;99.90
44559;DHT22;30270;40.238;18.256;2022-12-18T06:32:54;13.80;99.90
44559;DHT22;30270;40.238;18.256;2022-12-18T06:35:22;13.80;99.90
44559;DHT22;30270;40.238;18.256;2022-12-18T06:37:50;13.90;99.90
44559;DHT22;30270;40.238;18.256;2022-12-18T06:40:17;13.90;99.90
44559;DHT22;30270;40.238;18.256;2022-12-18T06:42:45;13.90;99.90
44559;DHT22;30270;40.238;18.256;2022-12-18T06:45:12;13.90;99.90
44559;DHT22;30270;40.238;18.256;2022-12-18T06:47:40;13.90;99.90
44559;DHT22;30270;40.238;18.256;2022-12-18T06:50:08;13.90;99.90
44559;DHT22;30270;40.238;18.256;2022-12-18T06:52:35;13.90;99.90
44559;DHT22;30270;40.238;18.256;2022-12-18T06:55:04;13.90;99.90
44559;DHT22;30270;40.238;18.256;2022-12-18T06:57:32;13.90;99.90
44559;DHT22;30270;40.238;18.256;2022-12-18T06:59:59;14.00;99.90
44559;DHT22;30270;40.238;18.256;2022-12-18T07:02:26;14.00;99.90
44559;DHT22;30270;40.238;18.256;2022-12-18T07:04:54;14.00;99.90
44559;DHT22;30270;40.238;18.256;2022-12-18T07:07:22;14.00;99.90
44559;DHT22;30270;40.238;18.256;2022-12-18T07:09:50;14.00;99.90
44559;DHT22;30270;40.238;18.256;2022-12-18T07:12:18;14.10;99.90
44559;DHT22;30270;40.238;18.256;2022-12-18T07:14:46;14.10;99.90
44559;DHT22;30270;40.238;18.256;2022-12-18T07:17:13;14.10;99.90
44559;DHT22;30270;40.238;18.256;2022-12-18T07:19:41;14.10;99.90
44559;DHT22;30270;40.238;18.256;2022-12-18T07:22:08;14.20;99.90
44559;DHT22;30270;40.238;18.256;2022-12-18T07:24:36;14.30;99.90
44559;DHT22;30270;40.238;18.256;2022-12-18T07:27:03;14.30;99.90
44559;DHT22;30270;40.238;18.256;2022-12-18T07:29:31;14.40;99.90
44559;DHT22;30270;40.238;18.256;2022-12-18T07:31:58;14.50;99.90
44559;DHT22;30270;40.238;18.256;2022-12-18T07:34:26;14.60;99.90
44559;DHT22;30270;40.238;18.256;2022-12-18T07:36:54;14.70;99.90
44559;DHT22;30270;40.238;18.256;2022-12-18T07:39:21;14.80;99.90
44559;DHT22;30270;40.238;18.256;2022-12-18T07:41:48;14.90;99.90
44559;DHT22;30270;40.238;18.256;2022-12-18T07:44:39;15.00;99.90
44559;DHT22;30270;40.238;18.256;2022-12-18T07:47:07;15.10;99.90
44559;DHT22;30270;40.238;18.256;2022-12-18T07:49:37;15.10;99.90
44559;DHT22;30270;40.238;18.256;2022-12-18T07:52:05;15.10;99.90
44559;DHT22;30270;40.238;18.256;2022-12-18T07:54:33;15.10;99.90
44559;DHT22;30270;40.238;18.256;2022-12-18T07:57:00;15.00;99.90
44559;DHT22;30270;40.238;18.256;2022-12-18T07:59:28;15.10;99.90
44559;DHT22;30270;40.238;18.256;2022-12-18T08:01:55;15.20;99.90
44559;DHT22;30270;40.238;18.256;2022-12-18T08:04:23;15.30;99.90
44559;DHT22;30270;40.238;18.256;2022-12-18T08:06:51;15.30;99.90
44559;DHT22;30270;40.238;18.256;2022-12-18T08:09:19;15.30;99.90
44559;DHT22;30270;40.238;18.256;2022-12-18T08:11:46;15.30;99.90
44559;DHT22;30270;40.238;18.256;2022-12-18T08:14:14;15.30;99.90
44559;DHT22;30270;40.238;18.256;2022-12-18T08:16:41;15.30;99.90
44559;DHT22;30270;40.238;18.256;2022-12-18T08:19:09;15.40;99.90
44559;DHT22;30270;40.238;18.256;2022-12-18T08:21:37;15.50;99.90
44559;DHT22;30270;40.238;18.256;2022-12-18T08:24:10;15.60;99.90
44559;DHT22;30270;40.238;18.256;2022-12-18T08:26:38;15.60;99.90
44559;DHT22;30270;40.238;18.256;2022-12-18T08:29:05;15.70;99.90
44559;DHT22;30270;40.238;18.256;2022-12-18T08:31:33;15.80;99.90
44559;DHT22;30270;40.238;18.256;2022-12-18T08:34:00;16.00;99.90
44559;DHT22;30270;40.238;18.256;2022-12-18T08:36:28;16.30;99.90
44559;DHT22;30270;40.238;18.256;2022-12-18T08:38:56;16.50;99.90
44559;DHT22;30270;40.238;18.256;2022-12-18T08:41:24;16.80;99.90
44559;DHT22;30270;40.238;18.256;2022-12-18T08:43:51;17.10;99.90
44559;DHT22;30270;40.238;18.256;2022-12-18T08:46:39;17.20;99.90
44559;DHT22;30270;40.238;18.256;2022-12-18T08:49:08;17.30;99.90
44559;DHT22;30270;40.238;18.256;2022-12-18T08:51:37;17.30;99.90
44559;DHT22;30270;40.238;18.256;2022-12-18T08:54:05;17.30;99.90
44559;DHT22;30270;40.238;18.256;2022-12-18T08:56:33;17.30;99.90
44559;DHT22;30270;40.238;18.256;2022-12-18T08:59:02;17.30;99.90
44559;DHT22;30270;40.238;18.256;2022-12-18T09:01:30;17.40;99.90
44559;DHT22;30270;40.238;18.256;2022-12-18T09:03:58;17.60;99.90
44559;DHT22;30270;40.238;18.256;2022-12-18T09:06:25;17.70;99.90
44559;DHT22;30270;40.238;18.256;2022-12-18T09:08:54;17.80;99.90
44559;DHT22;30270;40.238;18.256;2022-12-18T09:11:24;17.90;99.90
44559;DHT22;30270;40.238;18.256;2022-12-18T09:13:53;17.90;99.90
44559;DHT22;30270;40.238;18.256;2022-12-18T09:16:22;18.00;99.90
44559;DHT22;30270;40.238;18.256;2022-12-18T09:18:56;18.10;99.90
44559;DHT22;30270;40.238;18.256;2022-12-18T09:21:29;18.40;99.90
44559;DHT22;30270;40.238;18.256;2022-12-18T09:23:57;18.50;99.90
44559;DHT22;30270;40.238;18.256;2022-12-18T09:26:26;18.50;99.90
44559;DHT22;30270;40.238;18.256;2022-12-18T09:28:53;18.50;99.90
44559;DHT22;30270;40.238;18.256;2022-12-18T09:31:22;18.40;99.90
44559;DHT22;30270;40.238;18.256;2022-12-18T09:33:51;18.40;99.90
44559;DHT22;30270;40.238;18.256;2022-12-18T09:36:19;18.30;99.90
44559;DHT22;30270;40.238;18.256;2022-12-18T09:38:46;18.20;99.90
44559;DHT22;30270;40.238;18.256;2022-12-18T09:41:31;18.10;99.90
44559;DHT22;30270;40.238;18.256;2022-12-18T09:44:23;18.00;99.90
44559;DHT22;30270;40.238;18.256;2022-12-18T09:46:53;18.10;99.90
44559;DHT22;30270;40.238;18.256;2022-12-18T09:49:23;18.00;99.90
44559;DHT22;30270;40.238;18.256;2022-12-18T09:52:09;18.00;99.90
44559;DHT22;30270;40.238;18.256;2022-12-18T09:54:41;18.00;99.90
44559;DHT22;30270;40.238;18.256;2022-12-18T09:57:17;18.20;99.90
44559;DHT22;30270;40.238;18.256;2022-12-18T09:59:50;18.30;99.90
44559;DHT22;30270;40.238;18.256;2022-12-18T10:02:21;18.50;99.90
44559;DHT22;30270;40.238;18.256;2022-12-18T10:05:03;18.70;99.90
44559;DHT22;30270;40.238;18.256;2022-12-18T10:16:00;19.30;99.90
44559;DHT22;30270;40.238;18.256;2022-12-18T10:21:34;19.40;99.90
44559;DHT22;30270;40.238;18.256;2022-12-18T10:24:34;19.60;99.90
44559;DHT22;30270;40.238;18.256;2022-12-18T10:27:18;19.70;99.90
44559;DHT22;30270;40.238;18.256;2022-12-18T10:29:46;19.80;99.90
44559;DHT22;30270;40.238;18.256;2022-12-18T10:32:30;19.90;99.90
44559;DHT22;30270;40.238;18.256;2022-12-18T10:34:58;20.10;99.90
44559;DHT22;30270;40.238;18.256;2022-12-18T10:37:28;20.20;99.90
44559;DHT22;30270;40.238;18.256;2022-12-18T10:40:15;20.30;99.90
44559;DHT22;30270;40.238;18.256;2022-12-18T10:43:03;20.30;99.90
44559;DHT22;30270;40.238;18.256;2022-12-18T10:45:32;20.20;99.90
44559;DHT22;30270;40.238;18.256;2022-12-18T10:48:00;20.00;99.90
44559;DHT22;30270;40.238;18.256;2022-12-18T10:50:33;19.90;99.90
44559;DHT22;30270;40.238;18.256;2022-12-18T10:53:24;19.90;99.90
44559;DHT22;30270;40.238;18.256;2022-12-18T10:55:54;19.90;99.90
44559;DHT22;30270;40.238;18.256;2022-12-18T10:58:29;20.10;99.90
44559;DHT22;30270;40.238;18.256;2022-12-18T11:01:09;20.20;99.90
44559;DHT22;30270;40.238;18.256;2022-12-18T11:06:17;20.40;99.90
44559;DHT22;30270;40.238;18.256;2022-12-18T11:09:01;20.50;99.90
44559;DHT22;30270;40.238;18.256;2022-12-18T11:11:32;20.40;99.90
44559;DHT22;30270;40.238;18.256;2022-12-18T11:14:15;20.20;99.90
44559;DHT22;30270;40.238;18.256;2022-12-18T11:16:47;20.10;99.90
44559;DHT22;30270;40.238;18.256;2022-12-18T11:19:37;20.10;99.90
44559;DHT22;30270;40.238;18.256;2022-12-18T11:27:53;20.00;99.90
44559;DHT22;30270;40.238;18.256;2022-12-18T11:35:47;20.00;99.90
44559;DHT22;30270;40.238;18.256;2022-12-18T11:43:42;20.40;99.90
44559;DHT22;30270;40.238;18.256;2022-12-18T11:46:15;20.50;99.90
44559;DHT22;30270;40.238;18.256;2022-12-18T11:49:17;20.70;99.90
44559;DHT22;30270;40.238;18.256;2022-12-18T11:52:00;20.60;99.90
44559;DHT22;30270;40.238;18.256;2022-12-18T11:54:28;20.60;99.90
44559;DHT22;30270;40.238;18.256;2022-12-18T11:57:02;20.50;99.90
44559;DHT22;30270;40.238;18.256;2022-12-18T12:07:53;20.00;99.90
44559;DHT22;30270;40.238;18.256;2022-12-18T12:21:28;19.60;99.90
44559;DHT22;30270;40.238;18.256;2022-12-18T12:24:17;19.50;99.90
44559;DHT22;30270;40.238;18.256;2022-12-18T12:38:24;19.70;99.90
44559;DHT22;30270;40.238;18.256;2022-12-18T12:41:05;19.80;99.90
44559;DHT22;30270;40.238;18.256;2022-12-18T12:43:47;19.60;99.90
44559;DHT22;30270;40.238;18.256;2022-12-18T12:46:19;19.70;99.90
44559;DHT22;30270;40.238;18.256;2022-12-18T12:48:49;19.70;99.90
44559;DHT22;30270;40.238;18.256;2022-12-18T12:51:27;19.70;99.90
44559;DHT22;30270;40.238;18.256;2022-12-18T12:53:57;19.80;99.90
44559;DHT22;30270;40.238;18.256;2022-12-18T12:56:51;19.70;99.90
44559;DHT22;30270;40.238;18.256;2022-12-18T13:10:30;19.20;99.90
44559;DHT22;30270;40.238;18.256;2022-12-18T13:13:11;19.10;99.90
44559;DHT22;30270;40.238;18.256;2022-12-18T13:15:45;19.20;99.90
44559;DHT22;30270;40.238;18.256;2022-12-18T13:18:19;19.10;99.90
44559;DHT22;30270;40.238;18.256;2022-12-18T13:23:34;18.90;99.90
44559;DHT22;30270;40.238;18.256;2022-12-18T13:34:22;18.60;99.90
44559;DHT22;30270;40.238;18.256;2022-12-18T13:36:53;18.50;99.90
44559;DHT22;30270;40.238;18.256;2022-12-18T13:39:23;18.40;99.90
44559;DHT22;30270;40.238;18.256;2022-12-18T13:45:41;18.30;99.90
44559;DHT22;30270;40.238;18.256;2022-12-18T13:48:23;18.20;99.90
44559;DHT22;30270;40.238;18.256;2022-12-18T13:51:15;18.10;99.90
44559;DHT22;30270;40.238;18.256;2022-12-18T13:56:16;18.00;99.90
44559;DHT22;30270;40.238;18.256;2022-12-18T13:58:44;18.00;99.90
44559;DHT22;30270;40.238;18.256;2022-12-18T14:01:24;17.90;99.90
44559;DHT22;30270;40.238;18.256;2022-12-18T14:04:09;17.90;99.90
44559;DHT22;30270;40.238;18.256;2022-12-18T14:06:37;17.90;99.90
44559;DHT22;30270;40.238;18.256;2022-12-18T14:09:05;17.50;99.90
44559;DHT22;30270;40.238;18.256;2022-12-18T14:11:33;17.30;99.90
44559;DHT22;30270;40.238;18.256;2022-12-18T14:14:02;17.30;99.90
44559;DHT22;30270;40.238;18.256;2022-12-18T14:16:31;17.20;99.90
44559;DHT22;30270;40.238;18.256;2022-12-18T14:18:59;17.10;99.90
44559;DHT22;30270;40.238;18.256;2022-12-18T14:21:28;17.20;99.90
44559;DHT22;30270;40.238;18.256;2022-12-18T14:24:23;17.10;99.90
44559;DHT22;30270;40.238;18.256;2022-12-18T14:26:51;17.10;99.90
44559;DHT22;30270;40.238;18.256;2022-12-18T14:29:29;17.10;99.90
44559;DHT22;30270;40.238;18.256;2022-12-18T14:32:12;17.10;99.90
44559;DHT22;30270;40.238;18.256;2022-12-18T14:34:49;17.00;99.90
44559;DHT22;30270;40.238;18.256;2022-12-18T14:37:21;17.00;99.90
44559;DHT22;30270;40.238;18.256;2022-12-18T14:40:01;17.00;99.90
44559;DHT22;30270;40.238;18.256;2022-12-18T14:42:35;16.90;99.90
44559;DHT22;30270;40.238;18.256;2022-12-18T14:45:34;16.80;99.90
44559;DHT22;30270;40.238;18.256;2022-12-18T14:48:09;16.80;99.90
44559;DHT22;30270;40.238;18.256;2022-12-18T14:50:39;16.80;99.90
44559;DHT22;30270;40.238;18.256;2022-12-18T14:53:35;16.80;99.90
44559;DHT22;30270;40.238;18.256;2022-12-18T14:58:47;16.70;99.90
44559;DHT22;30270;40.238;18.256;2022-12-18T15:03:56;16.80;99.90
44559;DHT22;30270;40.238;18.256;2022-12-18T15:06:36;16.70;99.90
44559;DHT22;30270;40.238;18.256;2022-12-18T15:09:24;16.60;99.90
44559;DHT22;30270;40.238;18.256;2022-12-18T15:11:58;16.50;99.90
44559;DHT22;30270;40.238;18.256;2022-12-18T15:16:59;16.50;99.90
44559;DHT22;30270;40.238;18.256;2022-12-18T15:19:58;16.40;99.90
44559;DHT22;30270;40.238;18.256;2022-12-18T15:22:34;16.40;99.90
44559;DHT22;30270;40.238;18.256;2022-12-18T15:25:20;16.40;99.90
44559;DHT22;30270;40.238;18.256;2022-12-18T15:27:49;16.30;99.90
44559;DHT22;30270;40.238;18.256;2022-12-18T15:30:18;16.30;99.90
44559;DHT22;30270;40.238;18.256;2022-12-18T15:32:46;16.20;99.90
44559;DHT22;30270;40.238;18.256;2022-12-18T15:35:18;16.20;99.90
44559;DHT22;30270;40.238;18.256;2022-12-18T15:37:46;16.20;99.90
44559;DHT22;30270;40.238;18.256;2022-12-18T15:40:20;16.10;99.90
44559;DHT22;30270;40.238;18.256;2022-12-18T15:42:48;16.10;99.90
44559;DHT22;30270;40.238;18.256;2022-12-18T15:45:36;16.10;99.90
44559;DHT22;30270;40.238;18.256;2022-12-18T15:48:23;16.10;99.90
44559;DHT22;30270;40.238;18.256;2022-12-18T15:50:51;16.00;99.90
44559;DHT22;30270;40.238;18.256;2022-12-18T15:53:19;16.00;99.90
44559;DHT22;30270;40.238;18.256;2022-12-18T15:55:47;15.90;99.90
44559;DHT22;30270;40.238;18.256;2022-12-18T15:58:33;15.90;99.90
44559;DHT22;30270;40.238;18.256;2022-12-18T16:01:02;15.90;99.90
44559;DHT22;30270;40.238;18.256;2022-12-18T16:03:30;15.80;99.90
44559;DHT22;30270;40.238;18.256;2022-12-18T16:05:58;15.90;99.90
44559;DHT22;30270;40.238;18.256;2022-12-18T16:08:28;15.80;99.90
44559;DHT22;30270;40.238;18.256;2022-12-18T16:10:58;15.80;99.90
44559;DHT22;30270;40.238;18.256;2022-12-18T16:13:25;15.80;99.90
44559;DHT22;30270;40.238;18.256;2022-12-18T16:15:53;15.70;99.90
44559;DHT22;30270;40.238;18.256;2022-12-18T16:18:21;15.70;99.90
44559;DHT22;30270;40.238;18.256;2022-12-18T16:20:49;15.70;99.90
44559;DHT22;30270;40.238;18.256;2022-12-18T16:23:17;15.60;99.90
44559;DHT22;30270;40.238;18.256;2022-12-18T16:25:44;15.60;99.90
44559;DHT22;30270;40.238;18.256;2022-12-18T16:28:12;15.60;99.90
44559;DHT22;30270;40.238;18.256;2022-12-18T16:30:40;15.50;99.90
44559;DHT22;30270;40.238;18.256;2022-12-18T16:33:09;15.60;99.90
44559;DHT22;30270;40.238;18.256;2022-12-18T16:35:37;15.50;99.90
44559;DHT22;30270;40.238;18.256;2022-12-18T16:38:04;15.50;99.90
44559;DHT22;30270;40.238;18.256;2022-12-18T16:40:32;15.50;99.90
44559;DHT22;30270;40.238;18.256;2022-12-18T16:43:00;15.50;99.90
44559;DHT22;30270;40.238;18.256;2022-12-18T16:45:28;15.30;99.90
44559;DHT22;30270;40.238;18.256;2022-12-18T16:48:00;15.30;99.90
44559;DHT22;30270;40.238;18.256;2022-12-18T16:50:27;15.30;99.90
44559;DHT22;30270;40.238;18.256;2022-12-18T16:52:55;15.30;99.90
44559;DHT22;30270;40.238;18.256;2022-12-18T16:55:23;15.30;99.90
44559;DHT22;30270;40.238;18.256;2022-12-18T16:57:50;15.20;99.90
44559;DHT22;30270;40.238;18.256;2022-12-18T17:00:18;15.30;99.90
44559;DHT22;30270;40.238;18.256;2022-12-18T17:02:46;15.20;99.90
44559;DHT22;30270;40.238;18.256;2022-12-18T17:05:14;15.10;99.90
44559;DHT22;30270;40.238;18.256;2022-12-18T17:07:42;15.10;99.90
44559;DHT22;30270;40.238;18.256;2022-12-18T17:10:09;15.10;99.90
44559;DHT22;30270;40.238;18.256;2022-12-18T17:12:37;15.20;99.90
44559;DHT22;30270;40.238;18.256;2022-12-18T17:15:05;15.20;99.90
44559;DHT22;30270;40.238;18.256;2022-12-18T17:17:33;15.20;99.90
44559;DHT22;30270;40.238;18.256;2022-12-18T17:20:05;15.20;99.90
44559;DHT22;30270;40.238;18.256;2022-12-18T17:22:32;15.20;99.90
44559;DHT22;30270;40.238;18.256;2022-12-18T17:25:00;15.20;99.90
44559;DHT22;30270;40.238;18.256;2022-12-18T17:27:28;15.20;99.90
44559;DHT22;30270;40.238;18.256;2022-12-18T17:29:55;15.20;99.90
44559;DHT22;30270;40.238;18.256;2022-12-18T17:32:23;15.10;99.90
44559;DHT22;30270;40.238;18.256;2022-12-18T17:34:50;15.10;99.90
44559;DHT22;30270;40.238;18.256;2022-12-18T17:37:18;15.20;99.90
44559;DHT22;30270;40.238;18.256;2022-12-18T17:39:45;15.20;99.90
44559;DHT22;30270;40.238;18.256;2022-12-18T17:42:13;15.10;99.90
44559;DHT22;30270;40.238;18.256;2022-12-18T17:44:43;15.00;99.90
44559;DHT22;30270;40.238;18.256;2022-12-18T17:47:12;15.00;99.90
44559;DHT22;30270;40.238;18.256;2022-12-18T17:49:40;15.00;99.90
44559;DHT22;30270;40.238;18.256;2022-12-18T17:52:08;15.00;99.90
44559;DHT22;30270;40.238;18.256;2022-12-18T17:54:36;15.00;99.90
44559;DHT22;30270;40.238;18.256;2022-12-18T17:57:06;15.00;99.90